sensor_id;sensor_type;location;lat;lon;timestamp;temperature;humidity
1137;DHT22;557;48.466;7.950;2023-08-20T00:00:49;22.40;99.90
1137;DHT22;557;48.466;7.950;2023-08-20T00:03:37;22.40;99.90
1137;DHT22;557;48.466;7.950;2023-08-20T00:06:26;22.50;99.90
1137;DHT22;557;48.466;7.950;2023-08-20T00:09:13;22.40;99.90
1137;DHT22;557;48.466;7.950;2023-08-20T00:12:03;22.40;99.90
1137;DHT22;557;48.466;7.950;2023-08-20T00:14:52;22.40;99.90
1137;DHT22;557;48.466;7.950;2023-08-20T00:17:41;22.40;99.90
1137;DHT22;557;48.466;7.950;2023-08-20T00:20:29;22.40;99.90
1137;DHT22;557;48.466;7.950;2023-08-20T00:23:18;22.30;99.90
1137;DHT22;557;48.466;7.950;2023-08-20T00:26:06;22.30;99.90
1137;DHT22;557;48.466;7.950;2023-08-20T00:28:53;22.20;99.90
1137;DHT22;557;48.466;7.950;2023-08-20T00:31:41;22.20;99.90
1137;DHT22;557;48.466;7.950;2023-08-20T00:34:28;22.20;99.90
1137;DHT22;557;48.466;7.950;2023-08-20T00:37:15;22.10;99.90
1137;DHT22;557;48.466;7.950;2023-08-20T00:40:05;22.10;99.90
1137;DHT22;557;48.466;7.950;2023-08-20T00:42:53;22.10;99.90
1137;DHT22;557;48.466;7.950;2023-08-20T00:45:40;22.00;99.90
1137;DHT22;557;48.466;7.950;2023-08-20T00:48:28;22.00;99.90
1137;DHT22;557;48.466;7.950;2023-08-20T00:51:16;22.00;99.90
1137;DHT22;557;48.466;7.950;2023-08-20T00:54:04;21.90;99.90
1137;DHT22;557;48.466;7.950;2023-08-20T00:56:53;21.90;99.90
1137;DHT22;557;48.466;7.950;2023-08-20T00:59:42;21.80;99.90
1137;DHT22;557;48.466;7.950;2023-08-20T01:02:30;21.80;99.90
1137;DHT22;557;48.466;7.950;2023-08-20T01:05:18;21.80;99.90
1137;DHT22;557;48.466;7.950;2023-08-20T01:08:16;21.70;99.90
1137;DHT22;557;48.466;7.950;2023-08-20T01:11:12;21.70;99.90
1137;DHT22;557;48.466;7.950;2023-08-20T01:14:14;21.70;99.90
1137;DHT22;557;48.466;7.950;2023-08-20T01:17:01;21.70;99.90
1137;DHT22;557;48.466;7.950;2023-08-20T01:19:49;21.70;99.90
1137;DHT22;557;48.466;7.950;2023-08-20T01:22:58;21.60;99.90
1137;DHT22;557;48.466;7.950;2023-08-20T01:26:08;21.60;99.90
1137;DHT22;557;48.466;7.950;2023-08-20T01:32:31;21.80;99.90
1137;DHT22;557;48.466;7.950;2023-08-20T01:35:19;21.80;99.90
1137;DHT22;557;48.466;7.950;2023-08-20T01:38:06;21.70;99.90
1137;DHT22;557;48.466;7.950;2023-08-20T01:40:53;21.70;99.90
1137;DHT22;557;48.466;7.950;2023-08-20T01:43:42;21.60;99.90
1137;DHT22;557;48.466;7.950;2023-08-20T01:46:29;21.60;99.90
1137;DHT22;557;48.466;7.950;2023-08-20T01:49:17;21.60;99.90
1137;DHT22;557;48.466;7.950;2023-08-20T01:52:05;21.60;99.90
1137;DHT22;557;48.466;7.950;2023-08-20T01:54:52;21.50;99.90
1137;DHT22;557;48.466;7.950;2023-08-20T01:57:39;21.40;99.90
1137;DHT22;557;48.466;7.950;2023-08-20T02:00:27;21.40;99.90
1137;DHT22;557;48.466;7.950;2023-08-20T02:03:14;21.30;99.90
1137;DHT22;557;48.466;7.950;2023-08-20T02:06:03;21.30;99.90
1137;DHT22;557;48.466;7.950;2023-08-20T02:08:50;21.20;99.90
1137;DHT22;557;48.466;7.950;2023-08-20T02:11:37;21.30;99.90
1137;DHT22;557;48.466;7.950;2023-08-20T02:14:24;21.30;99.90
1137;DHT22;557;48.466;7.950;2023-08-20T02:17:13;21.20;99.90
1137;DHT22;557;48.466;7.950;2023-08-20T02:20:00;21.20;99.90
1137;DHT22;557;48.466;7.950;2023-08-20T02:22:50;21.20;99.90
1137;DHT22;557;48.466;7.950;2023-08-20T02:25:37;21.10;99.90
1137;DHT22;557;48.466;7.950;2023-08-20T02:28:24;21.10;99.90
1137;DHT22;557;48.466;7.950;2023-08-20T02:31:11;21.00;99.90
1137;DHT22;557;48.466;7.950;2023-08-20T02:33:58;21.00;99.90
1137;DHT22;557;48.466;7.950;2023-08-20T02:36:45;21.00;99.90
1137;DHT22;557;48.466;7.950;2023-08-20T02:39:35;21.00;99.90
1137;DHT22;557;48.466;7.950;2023-08-20T02:42:23;20.90;99.90
1137;DHT22;557;48.466;7.950;2023-08-20T02:45:10;20.90;99.90
1137;DHT22;557;48.466;7.950;2023-08-20T02:47:57;21.00;99.90
1137;DHT22;557;48.466;7.950;2023-08-20T02:50:45;21.00;99.90
1137;DHT22;557;48.466;7.950;2023-08-20T02:53:32;20.90;99.90
1137;DHT22;557;48.466;7.950;2023-08-20T02:56:21;20.90;99.90
1137;DHT22;557;48.466;7.950;2023-08-20T02:59:08;20.90;99.90
1137;DHT22;557;48.466;7.950;2023-08-20T03:01:55;20.90;99.90
1137;DHT22;557;48.466;7.950;2023-08-20T03:04:42;20.90;99.90
1137;DHT22;557;48.466;7.950;2023-08-20T03:07:29;21.00;99.90
1137;DHT22;557;48.466;7.950;2023-08-20T03:10:17;21.00;99.90
1137;DHT22;557;48.466;7.950;2023-08-20T03:13:06;21.10;99.90
1137;DHT22;557;48.466;7.950;2023-08-20T03:15:53;21.20;99.90
1137;DHT22;557;48.466;7.950;2023-08-20T03:18:40;21.30;99.90
1137;DHT22;557;48.466;7.950;2023-08-20T03:21:28;21.30;99.90
1137;DHT22;557;48.466;7.950;2023-08-20T03:24:15;21.40;99.90
1137;DHT22;557;48.466;7.950;2023-08-20T03:27:02;21.40;99.90
1137;DHT22;557;48.466;7.950;2023-08-20T03:29:51;21.40;99.90
1137;DHT22;557;48.466;7.950;2023-08-20T03:32:39;21.40;99.90
1137;DHT22;557;48.466;7.950;2023-08-20T03:35:26;21.30;99.90
1137;DHT22;557;48.466;7.950;2023-08-20T03:38:13;21.20;99.90
1137;DHT22;557;48.466;7.950;2023-08-20T03:41:00;21.20;99.90
1137;DHT22;557;48.466;7.950;2023-08-20T03:43:49;21.20;99.90
1137;DHT22;557;48.466;7.950;2023-08-20T03:46:37;21.20;99.90
1137;DHT22;557;48.466;7.950;2023-08-20T03:49:24;21.20;99.90
1137;DHT22;557;48.466;7.950;2023-08-20T03:52:12;21.20;99.90
1137;DHT22;557;48.466;7.950;2023-08-20T03:54:59;21.20;99.90
1137;DHT22;557;48.466;7.950;2023-08-20T03:57:46;21.20;99.90
1137;DHT22;557;48.466;7.950;2023-08-20T04:00:34;21.20;99.90
1137;DHT22;557;48.466;7.950;2023-08-20T04:03:23;21.10;99.90
1137;DHT22;557;48.466;7.950;2023-08-20T04:06:10;21.10;99.90
1137;DHT22;557;48.466;7.950;2023-08-20T04:08:57;21.10;99.90
1137;DHT22;557;48.466;7.950;2023-08-20T04:11:45;21.10;99.90
1137;DHT22;557;48.466;7.950;2023-08-20T04:14:32;21.00;99.90
1137;DHT22;557;48.466;7.950;2023-08-20T04:17:19;20.90;99.90
1137;DHT22;557;48.466;7.950;2023-08-20T04:20:08;20.90;99.90
1137;DHT22;557;48.466;7.950;2023-08-20T04:22:56;20.90;99.90
1137;DHT22;557;48.466;7.950;2023-08-20T04:25:43;20.90;99.90
1137;DHT22;557;48.466;7.950;2023-08-20T04:28:30;20.90;99.90
1137;DHT22;557;48.466;7.950;2023-08-20T04:31:18;20.90;99.90
1137;DHT22;557;48.466;7.950;2023-08-20T04:34:05;20.90;99.90
1137;DHT22;557;48.466;7.950;2023-08-20T04:36:53;20.90;99.90
1137;DHT22;557;48.466;7.950;2023-08-20T04:39:41;20.90;99.90
1137;DHT22;557;48.466;7.950;2023-08-20T04:42:28;21.00;99.90
1137;DHT22;557;48.466;7.950;2023-08-20T04:45:15;21.00;99.90
1137;DHT22;557;48.466;7.950;2023-08-20T04:48:04;21.00;99.90
1137;DHT22;557;48.466;7.950;2023-08-20T04:50:51;20.90;99.90
1137;DHT22;557;48.466;7.950;2023-08-20T04:53:40;20.90;99.90
1137;DHT22;557;48.466;7.950;2023-08-20T04:56:27;21.00;99.90
1137;DHT22;557;48.466;7.950;2023-08-20T04:59:14;21.00;99.90
1137;DHT22;557;48.466;7.950;2023-08-20T05:02:01;21.00;99.90
1137;DHT22;557;48.466;7.950;2023-08-20T05:04:49;21.10;99.90
1137;DHT22;557;48.466;7.950;2023-08-20T05:07:36;21.10;99.90
1137;DHT22;557;48.466;7.950;2023-08-20T05:10:25;21.10;99.90
1137;DHT22;557;48.466;7.950;2023-08-20T05:13:12;21.10;99.90
1137;DHT22;557;48.466;7.950;2023-08-20T05:15:59;21.10;99.90
1137;DHT22;557;48.466;7.950;2023-08-20T05:18:46;21.20;99.90
1137;DHT22;557;48.466;7.950;2023-08-20T05:21:33;21.20;99.90
1137;DHT22;557;48.466;7.950;2023-08-20T05:24:21;21.30;99.90
1137;DHT22;557;48.466;7.950;2023-08-20T05:27:12;21.40;99.90
1137;DHT22;557;48.466;7.950;2023-08-20T05:30:00;21.40;99.90
1137;DHT22;557;48.466;7.950;2023-08-20T05:32:47;21.40;99.90
1137;DHT22;557;48.466;7.950;2023-08-20T05:35:34;21.40;99.90
1137;DHT22;557;48.466;7.950;2023-08-20T05:38:22;21.40;99.90
1137;DHT22;557;48.466;7.950;2023-08-20T05:41:09;21.40;99.90
1137;DHT22;557;48.466;7.950;2023-08-20T05:43:57;21.40;99.90
1137;DHT22;557;48.466;7.950;2023-08-20T05:46:45;21.40;99.90
1137;DHT22;557;48.466;7.950;2023-08-20T05:49:32;21.50;99.90
1137;DHT22;557;48.466;7.950;2023-08-20T05:52:19;21.50;99.90
1137;DHT22;557;48.466;7.950;2023-08-20T05:55:07;21.60;99.90
1137;DHT22;557;48.466;7.950;2023-08-20T05:57:54;21.60;99.90
1137;DHT22;557;48.466;7.950;2023-08-20T06:00:43;21.70;99.90
1137;DHT22;557;48.466;7.950;2023-08-20T06:03:30;21.80;99.90
1137;DHT22;557;48.466;7.950;2023-08-20T06:06:17;21.90;99.90
1137;DHT22;557;48.466;7.950;2023-08-20T06:09:04;22.00;99.90
1137;DHT22;557;48.466;7.950;2023-08-20T06:11:52;22.20;99.90
1137;DHT22;557;48.466;7.950;2023-08-20T06:14:39;22.40;99.90
1137;DHT22;557;48.466;7.950;2023-08-20T06:17:27;22.60;99.90
1137;DHT22;557;48.466;7.950;2023-08-20T06:20:15;22.60;99.90
1137;DHT22;557;48.466;7.950;2023-08-20T06:23:04;22.70;99.90
1137;DHT22;557;48.466;7.950;2023-08-20T06:25:51;22.80;99.90
1137;DHT22;557;48.466;7.950;2023-08-20T06:28:39;22.90;99.90
1137;DHT22;557;48.466;7.950;2023-08-20T06:31:26;23.10;99.90
1137;DHT22;557;48.466;7.950;2023-08-20T06:34:16;23.10;99.90
1137;DHT22;557;48.466;7.950;2023-08-20T06:37:03;23.20;99.90
1137;DHT22;557;48.466;7.950;2023-08-20T06:39:50;23.20;99.90
1137;DHT22;557;48.466;7.950;2023-08-20T06:42:38;23.30;99.90
1137;DHT22;557;48.466;7.950;2023-08-20T06:45:25;23.20;99.90
1137;DHT22;557;48.466;7.950;2023-08-20T06:48:12;23.30;99.90
1137;DHT22;557;48.466;7.950;2023-08-20T06:51:08;23.30;99.90
1137;DHT22;557;48.466;7.950;2023-08-20T06:53:55;23.40;99.90
1137;DHT22;557;48.466;7.950;2023-08-20T06:56:42;23.60;99.90
1137;DHT22;557;48.466;7.950;2023-08-20T06:59:29;23.70;99.90
1137;DHT22;557;48.466;7.950;2023-08-20T07:02:17;23.80;99.90
1137;DHT22;557;48.466;7.950;2023-08-20T07:05:04;23.90;99.90
1137;DHT22;557;48.466;7.950;2023-08-20T07:07:56;24.00;99.90
1137;DHT22;557;48.466;7.950;2023-08-20T07:10:43;24.30;99.90
1137;DHT22;557;48.466;7.950;2023-08-20T07:13:30;24.30;99.90
1137;DHT22;557;48.466;7.950;2023-08-20T07:16:18;24.50;99.90
1137;DHT22;557;48.466;7.950;2023-08-20T07:19:05;24.70;97.30
1137;DHT22;557;48.466;7.950;2023-08-20T07:21:53;24.70;95.50
1137;DHT22;557;48.466;7.950;2023-08-20T07:24:41;24.80;99.90
1137;DHT22;557;48.466;7.950;2023-08-20T07:27:29;25.10;99.90
1137;DHT22;557;48.466;7.950;2023-08-20T07:30:16;25.50;32.90
1137;DHT22;557;48.466;7.950;2023-08-20T07:33:05;25.70;21.90
1137;DHT22;557;48.466;7.950;2023-08-20T07:35:53;25.70;1.00
1137;DHT22;557;48.466;7.950;2023-08-20T07:38:40;25.90;1.00
1137;DHT22;557;48.466;7.950;2023-08-20T07:41:29;26.10;1.00
1137;DHT22;557;48.466;7.950;2023-08-20T07:44:17;26.20;1.00
1137;DHT22;557;48.466;7.950;2023-08-20T07:47:04;26.20;1.00
1137;DHT22;557;48.466;7.950;2023-08-20T07:49:52;26.10;11.00
1137;DHT22;557;48.466;7.950;2023-08-20T07:52:39;26.30;30.30
1137;DHT22;557;48.466;7.950;2023-08-20T07:55:26;26.70;1.00
1137;DHT22;557;48.466;7.950;2023-08-20T07:58:15;26.70;1.00
1137;DHT22;557;48.466;7.950;2023-08-20T08:01:02;26.80;1.00
1137;DHT22;557;48.466;7.950;2023-08-20T08:03:49;26.80;1.00
1137;DHT22;557;48.466;7.950;2023-08-20T08:06:37;27.00;1.00
1137;DHT22;557;48.466;7.950;2023-08-20T08:09:27;27.10;1.00
1137;DHT22;557;48.466;7.950;2023-08-20T08:12:14;27.00;1.00
1137;DHT22;557;48.466;7.950;2023-08-20T08:15:03;26.90;1.00
1137;DHT22;557;48.466;7.950;2023-08-20T08:17:50;27.10;1.00
1137;DHT22;557;48.466;7.950;2023-08-20T08:20:38;27.20;1.00
1137;DHT22;557;48.466;7.950;2023-08-20T08:23:25;27.50;1.00
1137;DHT22;557;48.466;7.950;2023-08-20T08:26:12;27.70;1.00
1137;DHT22;557;48.466;7.950;2023-08-20T08:29:00;27.70;99.90
1137;DHT22;557;48.466;7.950;2023-08-20T08:31:49;27.80;99.90
1137;DHT22;557;48.466;7.950;2023-08-20T08:34:36;27.80;1.00
1137;DHT22;557;48.466;7.950;2023-08-20T08:37:23;28.20;99.90
1137;DHT22;557;48.466;7.950;2023-08-20T08:40:11;28.30;99.90
1137;DHT22;557;48.466;7.950;2023-08-20T08:43:00;28.30;99.90
1137;DHT22;557;48.466;7.950;2023-08-20T08:45:47;28.70;99.90
1137;DHT22;557;48.466;7.950;2023-08-20T08:48:37;28.80;58.10
1137;DHT22;557;48.466;7.950;2023-08-20T08:51:27;28.70;99.90
1137;DHT22;557;48.466;7.950;2023-08-20T08:54:15;28.40;1.00
1137;DHT22;557;48.466;7.950;2023-08-20T08:57:03;28.20;99.90
1137;DHT22;557;48.466;7.950;2023-08-20T08:59:51;28.40;99.90
1137;DHT22;557;48.466;7.950;2023-08-20T09:02:38;28.40;99.90
1137;DHT22;557;48.466;7.950;2023-08-20T09:05:27;28.70;99.90
1137;DHT22;557;48.466;7.950;2023-08-20T09:08:28;29.10;1.00
1137;DHT22;557;48.466;7.950;2023-08-20T09:11:15;29.30;99.90
1137;DHT22;557;48.466;7.950;2023-08-20T09:14:03;29.60;99.90
1137;DHT22;557;48.466;7.950;2023-08-20T09:16:57;29.70;99.90
1137;DHT22;557;48.466;7.950;2023-08-20T09:19:45;29.70;1.00
1137;DHT22;557;48.466;7.950;2023-08-20T09:22:35;29.90;1.00
1137;DHT22;557;48.466;7.950;2023-08-20T09:25:23;29.70;99.90
1137;DHT22;557;48.466;7.950;2023-08-20T09:28:10;29.40;99.90
1137;DHT22;557;48.466;7.950;2023-08-20T09:30:58;29.50;1.00
1137;DHT22;557;48.466;7.950;2023-08-20T09:33:50;30.00;15.20
1137;DHT22;557;48.466;7.950;2023-08-20T09:36:37;30.30;1.00
1137;DHT22;557;48.466;7.950;2023-08-20T09:39:26;30.60;99.90
1137;DHT22;557;48.466;7.950;2023-08-20T09:42:14;30.60;1.00
1137;DHT22;557;48.466;7.950;2023-08-20T09:45:03;30.90;99.90
1137;DHT22;557;48.466;7.950;2023-08-20T09:47:54;31.00;99.90
1137;DHT22;557;48.466;7.950;2023-08-20T09:50:43;31.20;99.90
1137;DHT22;557;48.466;7.950;2023-08-20T09:53:35;31.40;99.90
1137;DHT22;557;48.466;7.950;2023-08-20T09:56:27;31.40;99.90
1137;DHT22;557;48.466;7.950;2023-08-20T09:59:15;31.50;99.90
1137;DHT22;557;48.466;7.950;2023-08-20T10:02:04;31.90;99.90
1137;DHT22;557;48.466;7.950;2023-08-20T10:04:52;31.70;99.90
1137;DHT22;557;48.466;7.950;2023-08-20T10:07:39;31.70;99.90
1137;DHT22;557;48.466;7.950;2023-08-20T10:10:27;31.70;99.90
1137;DHT22;557;48.466;7.950;2023-08-20T10:13:16;31.60;99.90
1137;DHT22;557;48.466;7.950;2023-08-20T10:16:04;31.70;99.90
1137;DHT22;557;48.466;7.950;2023-08-20T10:18:51;31.80;38.20
1137;DHT22;557;48.466;7.950;2023-08-20T10:21:46;31.50;99.90
1137;DHT22;557;48.466;7.950;2023-08-20T10:24:47;31.40;1.00
1137;DHT22;557;48.466;7.950;2023-08-20T10:27:35;31.40;99.90
1137;DHT22;557;48.466;7.950;2023-08-20T10:30:25;31.20;99.90
1137;DHT22;557;48.466;7.950;2023-08-20T10:33:13;31.20;99.90
1137;DHT22;557;48.466;7.950;2023-08-20T10:36:09;31.70;99.90
1137;DHT22;557;48.466;7.950;2023-08-20T10:38:58;32.00;22.20
1137;DHT22;557;48.466;7.950;2023-08-20T10:42:08;32.20;1.00
1137;DHT22;557;48.466;7.950;2023-08-20T10:45:00;32.20;1.00
1137;DHT22;557;48.466;7.950;2023-08-20T10:47:50;32.40;1.00
1137;DHT22;557;48.466;7.950;2023-08-20T10:50:38;32.40;1.00
1137;DHT22;557;48.466;7.950;2023-08-20T10:53:27;32.50;1.00
1137;DHT22;557;48.466;7.950;2023-08-20T10:56:15;33.00;1.00
1137;DHT22;557;48.466;7.950;2023-08-20T10:59:06;33.40;1.00
1137;DHT22;557;48.466;7.950;2023-08-20T11:01:55;33.60;1.00
1137;DHT22;557;48.466;7.950;2023-08-20T11:04:44;33.80;99.90
1137;DHT22;557;48.466;7.950;2023-08-20T11:07:31;33.70;99.90
1137;DHT22;557;48.466;7.950;2023-08-20T11:10:21;33.80;99.90
1137;DHT22;557;48.466;7.950;2023-08-20T11:13:08;34.00;99.90
1137;DHT22;557;48.466;7.950;2023-08-20T11:15:55;34.00;99.90
1137;DHT22;557;48.466;7.950;2023-08-20T11:18:43;34.00;99.90
1137;DHT22;557;48.466;7.950;2023-08-20T11:21:32;34.30;99.90
1137;DHT22;557;48.466;7.950;2023-08-20T11:24:19;34.30;99.90
1137;DHT22;557;48.466;7.950;2023-08-20T11:27:07;34.30;99.90
1137;DHT22;557;48.466;7.950;2023-08-20T11:29:54;34.30;99.90
1137;DHT22;557;48.466;7.950;2023-08-20T11:32:42;34.20;99.90
1137;DHT22;557;48.466;7.950;2023-08-20T11:35:31;34.20;99.90
1137;DHT22;557;48.466;7.950;2023-08-20T11:38:22;34.20;99.90
1137;DHT22;557;48.466;7.950;2023-08-20T11:41:12;34.50;99.90
1137;DHT22;557;48.466;7.950;2023-08-20T11:43:59;34.60;99.90
1137;DHT22;557;48.466;7.950;2023-08-20T11:46:46;34.50;99.90
1137;DHT22;557;48.466;7.950;2023-08-20T11:49:34;34.50;99.90
1137;DHT22;557;48.466;7.950;2023-08-20T11:52:21;34.50;99.90
1137;DHT22;557;48.466;7.950;2023-08-20T11:55:09;34.50;99.90
1137;DHT22;557;48.466;7.950;2023-08-20T11:57:57;34.60;99.90
1137;DHT22;557;48.466;7.950;2023-08-20T12:00:48;34.80;99.90
1137;DHT22;557;48.466;7.950;2023-08-20T12:03:37;34.90;99.90
1137;DHT22;557;48.466;7.950;2023-08-20T12:06:24;35.10;99.90
1137;DHT22;557;48.466;7.950;2023-08-20T12:09:20;35.10;99.90
1137;DHT22;557;48.466;7.950;2023-08-20T12:12:09;35.10;99.90
1137;DHT22;557;48.466;7.950;2023-08-20T12:14:59;35.00;99.90
1137;DHT22;557;48.466;7.950;2023-08-20T12:17:57;35.20;99.90
1137;DHT22;557;48.466;7.950;2023-08-20T12:20:45;35.10;99.90
1137;DHT22;557;48.466;7.950;2023-08-20T12:23:32;35.10;99.90
1137;DHT22;557;48.466;7.950;2023-08-20T12:26:20;34.80;99.90
1137;DHT22;557;48.466;7.950;2023-08-20T12:29:08;34.80;99.90
1137;DHT22;557;48.466;7.950;2023-08-20T12:31:56;34.90;99.90
1137;DHT22;557;48.466;7.950;2023-08-20T12:34:43;35.10;99.90
1137;DHT22;557;48.466;7.950;2023-08-20T12:37:30;35.10;99.90
1137;DHT22;557;48.466;7.950;2023-08-20T12:40:18;35.40;99.90
1137;DHT22;557;48.466;7.950;2023-08-20T12:43:05;35.70;99.90
1137;DHT22;557;48.466;7.950;2023-08-20T12:45:54;35.80;99.90
1137;DHT22;557;48.466;7.950;2023-08-20T12:48:41;35.90;99.90
1137;DHT22;557;48.466;7.950;2023-08-20T12:51:28;36.00;99.90
1137;DHT22;557;48.466;7.950;2023-08-20T12:54:16;36.10;99.90
1137;DHT22;557;48.466;7.950;2023-08-20T12:57:04;36.20;99.90
1137;DHT22;557;48.466;7.950;2023-08-20T12:59:51;36.30;99.90
1137;DHT22;557;48.466;7.950;2023-08-20T13:02:40;36.50;99.90
1137;DHT22;557;48.466;7.950;2023-08-20T13:05:28;36.60;99.90
1137;DHT22;557;48.466;7.950;2023-08-20T13:08:16;36.10;99.90
1137;DHT22;557;48.466;7.950;2023-08-20T13:11:04;35.70;99.90
1137;DHT22;557;48.466;7.950;2023-08-20T13:13:54;35.40;99.90
1137;DHT22;557;48.466;7.950;2023-08-20T13:16:41;35.30;99.90
1137;DHT22;557;48.466;7.950;2023-08-20T13:19:30;35.50;99.90
1137;DHT22;557;48.466;7.950;2023-08-20T13:22:19;35.80;99.90
1137;DHT22;557;48.466;7.950;2023-08-20T13:25:06;35.80;99.90
1137;DHT22;557;48.466;7.950;2023-08-20T13:27:54;35.90;99.90
1137;DHT22;557;48.466;7.950;2023-08-20T13:30:42;35.60;99.90
1137;DHT22;557;48.466;7.950;2023-08-20T13:33:29;35.30;99.90
1137;DHT22;557;48.466;7.950;2023-08-20T13:36:18;35.40;99.90
1137;DHT22;557;48.466;7.950;2023-08-20T13:39:05;35.20;99.90
1137;DHT22;557;48.466;7.950;2023-08-20T13:41:52;34.80;99.90
1137;DHT22;557;48.466;7.950;2023-08-20T13:44:40;34.80;99.90
1137;DHT22;557;48.466;7.950;2023-08-20T13:47:27;34.70;99.90
1137;DHT22;557;48.466;7.950;2023-08-20T13:50:14;35.00;99.90
1137;DHT22;557;48.466;7.950;2023-08-20T13:53:03;34.90;99.90
1137;DHT22;557;48.466;7.950;2023-08-20T13:55:51;34.40;99.90
1137;DHT22;557;48.466;7.950;2023-08-20T13:58:38;34.30;99.90
1137;DHT22;557;48.466;7.950;2023-08-20T14:01:25;34.10;99.90
1137;DHT22;557;48.466;7.950;2023-08-20T14:04:13;34.00;99.90
1137;DHT22;557;48.466;7.950;2023-08-20T14:07:01;34.30;99.90
1137;DHT22;557;48.466;7.950;2023-08-20T14:09:49;34.40;99.90
1137;DHT22;557;48.466;7.950;2023-08-20T14:12:36;34.10;99.90
1137;DHT22;557;48.466;7.950;2023-08-20T14:15:24;34.10;99.90
1137;DHT22;557;48.466;7.950;2023-08-20T14:18:11;34.40;99.90
1137;DHT22;557;48.466;7.950;2023-08-20T14:20:58;34.10;99.90
1137;DHT22;557;48.466;7.950;2023-08-20T14:23:45;34.60;99.90
1137;DHT22;557;48.466;7.950;2023-08-20T14:26:34;34.80;99.90
1137;DHT22;557;48.466;7.950;2023-08-20T14:29:22;34.50;99.90
1137;DHT22;557;48.466;7.950;2023-08-20T14:32:09;34.40;99.90
1137;DHT22;557;48.466;7.950;2023-08-20T14:34:56;34.50;99.90
1137;DHT22;557;48.466;7.950;2023-08-20T14:37:44;35.00;99.90
1137;DHT22;557;48.466;7.950;2023-08-20T14:40:31;35.40;99.90
1137;DHT22;557;48.466;7.950;2023-08-20T14:43:21;35.80;99.90
1137;DHT22;557;48.466;7.950;2023-08-20T14:46:08;35.10;99.90
1137;DHT22;557;48.466;7.950;2023-08-20T14:48:55;34.60;99.90
1137;DHT22;557;48.466;7.950;2023-08-20T14:51:43;34.30;99.90
1137;DHT22;557;48.466;7.950;2023-08-20T14:54:30;34.40;99.90
1137;DHT22;557;48.466;7.950;2023-08-20T14:57:17;34.30;99.90
1137;DHT22;557;48.466;7.950;2023-08-20T15:00:07;34.10;99.90
1137;DHT22;557;48.466;7.950;2023-08-20T15:02:59;34.10;99.90
1137;DHT22;557;48.466;7.950;2023-08-20T15:05:47;34.50;99.90
1137;DHT22;557;48.466;7.950;2023-08-20T15:08:34;34.40;99.90
1137;DHT22;557;48.466;7.950;2023-08-20T15:11:21;34.10;99.90
1137;DHT22;557;48.466;7.950;2023-08-20T15:14:09;34.00;99.90
1137;DHT22;557;48.466;7.950;2023-08-20T15:16:57;34.00;99.90
1137;DHT22;557;48.466;7.950;2023-08-20T15:19:44;34.00;99.90
1137;DHT22;557;48.466;7.950;2023-08-20T15:22:32;33.70;99.90
1137;DHT22;557;48.466;7.950;2023-08-20T15:25:19;33.70;99.90
1137;DHT22;557;48.466;7.950;2023-08-20T15:28:06;34.30;99.90
1137;DHT22;557;48.466;7.950;2023-08-20T15:30:54;34.80;99.90
1137;DHT22;557;48.466;7.950;2023-08-20T15:33:42;34.80;99.90
1137;DHT22;557;48.466;7.950;2023-08-20T15:36:30;34.40;99.90
1137;DHT22;557;48.466;7.950;2023-08-20T15:39:17;33.80;99.90
1137;DHT22;557;48.466;7.950;2023-08-20T15:42:05;33.30;99.90
1137;DHT22;557;48.466;7.950;2023-08-20T15:44:52;33.10;99.90
1137;DHT22;557;48.466;7.950;2023-08-20T15:47:39;32.90;99.90
1137;DHT22;557;48.466;7.950;2023-08-20T15:50:28;32.70;99.90
1137;DHT22;557;48.466;7.950;2023-08-20T15:53:15;33.40;99.90
1137;DHT22;557;48.466;7.950;2023-08-20T15:56:04;34.30;99.90
1137;DHT22;557;48.466;7.950;2023-08-20T15:58:51;35.10;99.90
1137;DHT22;557;48.466;7.950;2023-08-20T16:01:39;35.80;99.90
1137;DHT22;557;48.466;7.950;2023-08-20T16:04:27;36.30;99.90
1137;DHT22;557;48.466;7.950;2023-08-20T16:07:15;36.20;99.90
1137;DHT22;557;48.466;7.950;2023-08-20T16:10:03;36.30;99.90
1137;DHT22;557;48.466;7.950;2023-08-20T16:12:51;36.60;99.90
1137;DHT22;557;48.466;7.950;2023-08-20T16:15:38;36.60;99.90
1137;DHT22;557;48.466;7.950;2023-08-20T16:18:26;36.60;99.90
1137;DHT22;557;48.466;7.950;2023-08-20T16:21:13;36.60;99.90
1137;DHT22;557;48.466;7.950;2023-08-20T16:24:03;36.80;99.90
1137;DHT22;557;48.466;7.950;2023-08-20T16:26:51;37.00;99.90
1137;DHT22;557;48.466;7.950;2023-08-20T16:29:39;37.30;99.90
1137;DHT22;557;48.466;7.950;2023-08-20T16:32:26;37.60;99.90
1137;DHT22;557;48.466;7.950;2023-08-20T16:35:13;37.60;95.40
1137;DHT22;557;48.466;7.950;2023-08-20T16:38:01;37.70;94.50
1137;DHT22;557;48.466;7.950;2023-08-20T16:40:50;38.10;95.10
1137;DHT22;557;48.466;7.950;2023-08-20T16:43:37;38.30;90.90
1137;DHT22;557;48.466;7.950;2023-08-20T16:46:24;38.40;91.40
1137;DHT22;557;48.466;7.950;2023-08-20T16:49:11;38.50;92.20
1137;DHT22;557;48.466;7.950;2023-08-20T16:51:59;38.60;87.30
1137;DHT22;557;48.466;7.950;2023-08-20T16:54:47;38.50;79.80
1137;DHT22;557;48.466;7.950;2023-08-20T16:57:36;38.40;78.20
1137;DHT22;557;48.466;7.950;2023-08-20T17:00:23;38.30;73.50
1137;DHT22;557;48.466;7.950;2023-08-20T17:03:11;38.00;64.70
1137;DHT22;557;48.466;7.950;2023-08-20T17:06:00;37.10;57.90
1137;DHT22;557;48.466;7.950;2023-08-20T17:08:48;36.00;55.00
1137;DHT22;557;48.466;7.950;2023-08-20T17:11:35;34.90;49.50
1137;DHT22;557;48.466;7.950;2023-08-20T17:14:24;34.40;52.20
1137;DHT22;557;48.466;7.950;2023-08-20T17:17:11;33.90;55.40
1137;DHT22;557;48.466;7.950;2023-08-20T17:19:58;33.40;60.60
1137;DHT22;557;48.466;7.950;2023-08-20T17:22:46;33.00;65.10
1137;DHT22;557;48.466;7.950;2023-08-20T17:25:33;32.70;73.50
1137;DHT22;557;48.466;7.950;2023-08-20T17:28:20;32.40;83.20
1137;DHT22;557;48.466;7.950;2023-08-20T17:31:09;32.10;89.90
1137;DHT22;557;48.466;7.950;2023-08-20T17:33:56;31.90;94.00
1137;DHT22;557;48.466;7.950;2023-08-20T17:36:44;31.70;99.90
1137;DHT22;557;48.466;7.950;2023-08-20T17:39:31;31.40;99.90
1137;DHT22;557;48.466;7.950;2023-08-20T17:42:18;31.30;99.90
1137;DHT22;557;48.466;7.950;2023-08-20T17:45:07;31.10;99.90
1137;DHT22;557;48.466;7.950;2023-08-20T17:47:55;30.90;99.90
1137;DHT22;557;48.466;7.950;2023-08-20T17:50:43;30.80;99.90
1137;DHT22;557;48.466;7.950;2023-08-20T17:53:30;30.70;99.90
1137;DHT22;557;48.466;7.950;2023-08-20T17:56:17;30.60;99.90
1137;DHT22;557;48.466;7.950;2023-08-20T17:59:05;30.50;99.90
1137;DHT22;557;48.466;7.950;2023-08-20T18:01:52;30.50;99.90
1137;DHT22;557;48.466;7.950;2023-08-20T18:04:41;30.40;99.90
1137;DHT22;557;48.466;7.950;2023-08-20T18:07:28;30.30;99.90
1137;DHT22;557;48.466;7.950;2023-08-20T18:10:15;30.20;99.90
1137;DHT22;557;48.466;7.950;2023-08-20T18:13:03;30.10;99.90
1137;DHT22;557;48.466;7.950;2023-08-20T18:15:50;30.00;99.90
1137;DHT22;557;48.466;7.950;2023-08-20T18:18:38;29.90;99.90
1137;DHT22;557;48.466;7.950;2023-08-20T18:21:26;29.90;99.90
1137;DHT22;557;48.466;7.950;2023-08-20T18:24:13;29.70;99.90
1137;DHT22;557;48.466;7.950;2023-08-20T18:27:01;29.60;1.00
1137;DHT22;557;48.466;7.950;2023-08-20T18:29:48;29.50;1.00
1137;DHT22;557;48.466;7.950;2023-08-20T18:32:35;29.30;1.00
1137;DHT22;557;48.466;7.950;2023-08-20T18:35:23;29.10;1.00
1137;DHT22;557;48.466;7.950;2023-08-20T18:38:18;29.00;99.90
1137;DHT22;557;48.466;7.950;2023-08-20T18:41:23;28.90;25.10